sensor_id;sensor_type;location;lat;lon;timestamp;P1;durP1;ratioP1;P2;durP2;ratioP2
48685;SDS011;34485;51.536;3.816;2023-11-18T00:01:23;27.80;;;16.00;;
48685;SDS011;34485;51.536;3.816;2023-11-18T00:03:48;29.23;;;16.05;;
48685;SDS011;34485;51.536;3.816;2023-11-18T00:06:14;25.10;;;15.80;;
48685;SDS011;34485;51.536;3.816;2023-11-18T00:08:40;25.30;;;15.38;;
48685;SDS011;34485;51.536;3.816;2023-11-18T00:11:06;29.77;;;15.52;;
48685;SDS011;34485;51.536;3.816;2023-11-18T00:13:32;22.90;;;16.00;;
48685;SDS011;34485;51.536;3.816;2023-11-18T00:15:58;27.42;;;17.50;;
48685;SDS011;34485;51.536;3.816;2023-11-18T00:18:24;25.88;;;17.17;;
48685;SDS011;34485;51.536;3.816;2023-11-18T00:20:50;25.40;;;16.92;;
48685;SDS011;34485;51.536;3.816;2023-11-18T00:23:16;27.98;;;16.85;;
48685;SDS011;34485;51.536;3.816;2023-11-18T00:25:43;28.58;;;17.75;;
48685;SDS011;34485;51.536;3.816;2023-11-18T00:28:10;29.45;;;17.33;;
48685;SDS011;34485;51.536;3.816;2023-11-18T00:30:36;40.97;;;19.48;;
48685;SDS011;34485;51.536;3.816;2023-11-18T00:33:02;30.15;;;17.55;;
48685;SDS011;34485;51.536;3.816;2023-11-18T00:35:29;28.10;;;16.58;;
48685;SDS011;34485;51.536;3.816;2023-11-18T00:37:57;26.10;;;15.88;;
48685;SDS011;34485;51.536;3.816;2023-11-18T00:40:24;25.33;;;15.60;;
48685;SDS011;34485;51.536;3.816;2023-11-18T00:42:50;29.38;;;17.13;;
48685;SDS011;34485;51.536;3.816;2023-11-18T00:45:16;26.35;;;15.20;;
48685;SDS011;34485;51.536;3.816;2023-11-18T00:47:43;26.33;;;15.95;;
48685;SDS011;34485;51.536;3.816;2023-11-18T00:50:09;26.27;;;14.93;;
48685;SDS011;34485;51.536;3.816;2023-11-18T00:52:35;24.45;;;14.10;;
48685;SDS011;34485;51.536;3.816;2023-11-18T00:55:06;21.88;;;13.43;;
48685;SDS011;34485;51.536;3.816;2023-11-18T00:57:32;18.38;;;12.07;;
48685;SDS011;34485;51.536;3.816;2023-11-18T00:59:58;22.15;;;11.10;;
48685;SDS011;34485;51.536;3.816;2023-11-18T01:02:24;20.05;;;11.25;;
48685;SDS011;34485;51.536;3.816;2023-11-18T01:04:51;19.90;;;11.50;;
48685;SDS011;34485;51.536;3.816;2023-11-18T01:07:17;19.35;;;11.43;;
48685;SDS011;34485;51.536;3.816;2023-11-18T01:09:43;17.92;;;10.77;;
48685;SDS011;34485;51.536;3.816;2023-11-18T01:12:10;24.57;;;10.43;;
48685;SDS011;34485;51.536;3.816;2023-11-18T01:14:37;25.95;;;10.52;;
48685;SDS011;34485;51.536;3.816;2023-11-18T01:17:04;23.17;;;10.73;;
48685;SDS011;34485;51.536;3.816;2023-11-18T01:19:30;26.60;;;10.25;;
48685;SDS011;34485;51.536;3.816;2023-11-18T01:21:56;21.05;;;9.73;;
48685;SDS011;34485;51.536;3.816;2023-11-18T01:24:22;26.00;;;10.77;;
48685;SDS011;34485;51.536;3.816;2023-11-18T01:26:48;20.20;;;10.50;;
48685;SDS011;34485;51.536;3.816;2023-11-18T01:29:14;22.45;;;10.52;;
48685;SDS011;34485;51.536;3.816;2023-11-18T01:31:40;17.67;;;10.30;;
48685;SDS011;34485;51.536;3.816;2023-11-18T01:34:06;23.60;;;11.77;;
48685;SDS011;34485;51.536;3.816;2023-11-18T01:36:32;21.97;;;11.43;;
48685;SDS011;34485;51.536;3.816;2023-11-18T01:38:58;20.23;;;10.82;;
48685;SDS011;34485;51.536;3.816;2023-11-18T01:41:25;21.52;;;10.80;;
48685;SDS011;34485;51.536;3.816;2023-11-18T01:43:51;16.15;;;9.18;;
48685;SDS011;34485;51.536;3.816;2023-11-18T01:46:18;18.42;;;10.05;;
48685;SDS011;34485;51.536;3.816;2023-11-18T01:48:46;19.63;;;8.83;;
48685;SDS011;34485;51.536;3.816;2023-11-18T01:51:12;17.88;;;8.70;;
48685;SDS011;34485;51.536;3.816;2023-11-18T01:53:39;19.27;;;9.70;;
48685;SDS011;34485;51.536;3.816;2023-11-18T01:56:08;15.52;;;8.13;;
48685;SDS011;34485;51.536;3.816;2023-11-18T01:58:36;14.32;;;8.90;;
48685;SDS011;34485;51.536;3.816;2023-11-18T02:01:03;15.07;;;7.73;;
48685;SDS011;34485;51.536;3.816;2023-11-18T02:03:33;24.55;;;9.05;;
48685;SDS011;34485;51.536;3.816;2023-11-18T02:06:00;19.90;;;9.00;;
48685;SDS011;34485;51.536;3.816;2023-11-18T02:08:26;16.75;;;8.55;;
48685;SDS011;34485;51.536;3.816;2023-11-18T02:11:00;17.88;;;8.77;;
48685;SDS011;34485;51.536;3.816;2023-11-18T02:13:29;23.87;;;10.03;;
48685;SDS011;34485;51.536;3.816;2023-11-18T02:15:56;29.10;;;11.27;;
48685;SDS011;34485;51.536;3.816;2023-11-18T02:18:27;23.20;;;10.68;;
48685;SDS011;34485;51.536;3.816;2023-11-18T02:20:57;24.98;;;11.40;;
48685;SDS011;34485;51.536;3.816;2023-11-18T02:23:25;28.50;;;11.95;;
48685;SDS011;34485;51.536;3.816;2023-11-18T02:25:51;18.30;;;10.17;;
48685;SDS011;34485;51.536;3.816;2023-11-18T02:28:18;24.48;;;10.70;;
48685;SDS011;34485;51.536;3.816;2023-11-18T02:30:47;18.48;;;10.77;;
48685;SDS011;34485;51.536;3.816;2023-11-18T02:33:23;18.23;;;10.63;;
48685;SDS011;34485;51.536;3.816;2023-11-18T02:36:13;20.45;;;9.55;;
48685;SDS011;34485;51.536;3.816;2023-11-18T02:38:44;19.73;;;9.23;;
48685;SDS011;34485;51.536;3.816;2023-11-18T02:41:12;25.05;;;9.32;;
48685;SDS011;34485;51.536;3.816;2023-11-18T02:43:39;23.88;;;10.63;;
48685;SDS011;34485;51.536;3.816;2023-11-18T02:46:09;18.35;;;9.07;;
48685;SDS011;34485;51.536;3.816;2023-11-18T02:48:37;18.13;;;9.75;;
48685;SDS011;34485;51.536;3.816;2023-11-18T02:51:04;22.80;;;10.77;;
48685;SDS011;34485;51.536;3.816;2023-11-18T02:53:32;21.20;;;10.48;;
48685;SDS011;34485;51.536;3.816;2023-11-18T02:55:59;21.83;;;10.50;;
48685;SDS011;34485;51.536;3.816;2023-11-18T02:58:27;24.60;;;11.05;;
48685;SDS011;34485;51.536;3.816;2023-11-18T03:00:53;23.05;;;11.93;;
48685;SDS011;34485;51.536;3.816;2023-11-18T03:03:19;23.60;;;10.77;;
48685;SDS011;34485;51.536;3.816;2023-11-18T03:05:46;18.52;;;12.15;;
48685;SDS011;34485;51.536;3.816;2023-11-18T03:08:14;23.92;;;13.18;;
48685;SDS011;34485;51.536;3.816;2023-11-18T03:10:40;19.23;;;11.35;;
48685;SDS011;34485;51.536;3.816;2023-11-18T03:13:09;23.27;;;13.85;;
48685;SDS011;34485;51.536;3.816;2023-11-18T03:15:37;24.67;;;11.90;;
48685;SDS011;34485;51.536;3.816;2023-11-18T03:18:03;23.60;;;12.35;;
48685;SDS011;34485;51.536;3.816;2023-11-18T03:20:30;24.77;;;12.85;;
48685;SDS011;34485;51.536;3.816;2023-11-18T03:22:58;22.88;;;11.95;;
48685;SDS011;34485;51.536;3.816;2023-11-18T03:25:25;21.27;;;12.52;;
48685;SDS011;34485;51.536;3.816;2023-11-18T03:27:51;22.83;;;12.50;;
48685;SDS011;34485;51.536;3.816;2023-11-18T03:30:19;24.92;;;13.77;;
48685;SDS011;34485;51.536;3.816;2023-11-18T03:32:45;24.08;;;12.77;;
48685;SDS011;34485;51.536;3.816;2023-11-18T03:35:12;25.92;;;13.80;;
48685;SDS011;34485;51.536;3.816;2023-11-18T03:37:38;27.90;;;13.82;;
48685;SDS011;34485;51.536;3.816;2023-11-18T03:40:09;25.03;;;12.80;;
48685;SDS011;34485;51.536;3.816;2023-11-18T03:42:36;24.52;;;12.15;;
48685;SDS011;34485;51.536;3.816;2023-11-18T03:45:02;32.65;;;12.30;;
48685;SDS011;34485;51.536;3.816;2023-11-18T03:47:28;27.25;;;11.90;;
48685;SDS011;34485;51.536;3.816;2023-11-18T03:49:56;28.13;;;13.13;;
48685;SDS011;34485;51.536;3.816;2023-11-18T03:52:22;26.27;;;11.57;;
48685;SDS011;34485;51.536;3.816;2023-11-18T03:54:48;26.27;;;11.93;;
48685;SDS011;34485;51.536;3.816;2023-11-18T03:57:14;25.02;;;12.43;;
48685;SDS011;34485;51.536;3.816;2023-11-18T03:59:40;32.65;;;11.57;;
48685;SDS011;34485;51.536;3.816;2023-11-18T04:02:07;19.88;;;10.90;;
48685;SDS011;34485;51.536;3.816;2023-11-18T04:04:34;20.67;;;11.47;;
48685;SDS011;34485;51.536;3.816;2023-11-18T04:07:00;27.13;;;10.43;;
48685;SDS011;34485;51.536;3.816;2023-11-18T04:09:26;27.50;;;11.20;;
48685;SDS011;34485;51.536;3.816;2023-11-18T04:11:52;23.42;;;10.60;;
48685;SDS011;34485;51.536;3.816;2023-11-18T04:14:18;25.73;;;11.38;;
48685;SDS011;34485;51.536;3.816;2023-11-18T04:16:46;23.67;;;11.50;;
48685;SDS011;34485;51.536;3.816;2023-11-18T04:19:12;20.77;;;11.32;;
48685;SDS011;34485;51.536;3.816;2023-11-18T04:21:38;21.85;;;11.32;;
48685;SDS011;34485;51.536;3.816;2023-11-18T04:24:04;18.58;;;9.95;;
48685;SDS011;34485;51.536;3.816;2023-11-18T04:26:31;27.17;;;11.30;;
48685;SDS011;34485;51.536;3.816;2023-11-18T04:28:57;22.57;;;11.03;;
48685;SDS011;34485;51.536;3.816;2023-11-18T04:31:23;23.73;;;9.50;;
48685;SDS011;34485;51.536;3.816;2023-11-18T04:33:49;32.55;;;11.75;;
48685;SDS011;34485;51.536;3.816;2023-11-18T04:36:15;21.25;;;9.32;;
48685;SDS011;34485;51.536;3.816;2023-11-18T04:38:42;26.95;;;9.82;;
48685;SDS011;34485;51.536;3.816;2023-11-18T04:41:08;25.43;;;9.93;;
48685;SDS011;34485;51.536;3.816;2023-11-18T04:43:34;29.05;;;10.27;;
48685;SDS011;34485;51.536;3.816;2023-11-18T04:46:00;28.67;;;11.05;;
48685;SDS011;34485;51.536;3.816;2023-11-18T04:48:26;22.92;;;10.43;;
48685;SDS011;34485;51.536;3.816;2023-11-18T04:50:52;23.38;;;10.98;;
48685;SDS011;34485;51.536;3.816;2023-11-18T04:53:18;31.83;;;11.80;;
48685;SDS011;34485;51.536;3.816;2023-11-18T04:55:44;24.50;;;11.20;;
48685;SDS011;34485;51.536;3.816;2023-11-18T04:58:10;23.08;;;11.18;;
48685;SDS011;34485;51.536;3.816;2023-11-18T05:00:36;28.42;;;11.02;;
48685;SDS011;34485;51.536;3.816;2023-11-18T05:03:07;24.83;;;12.15;;
48685;SDS011;34485;51.536;3.816;2023-11-18T05:05:38;19.73;;;11.10;;
48685;SDS011;34485;51.536;3.816;2023-11-18T05:08:07;24.50;;;11.27;;
48685;SDS011;34485;51.536;3.816;2023-11-18T05:10:36;25.45;;;10.27;;
48685;SDS011;34485;51.536;3.816;2023-11-18T05:13:03;22.13;;;10.43;;
48685;SDS011;34485;51.536;3.816;2023-11-18T05:15:29;20.67;;;10.25;;
48685;SDS011;34485;51.536;3.816;2023-11-18T05:17:56;20.57;;;8.37;;
48685;SDS011;34485;51.536;3.816;2023-11-18T05:20:22;14.13;;;8.93;;
48685;SDS011;34485;51.536;3.816;2023-11-18T05:22:49;21.13;;;9.40;;
48685;SDS011;34485;51.536;3.816;2023-11-18T05:25:15;19.55;;;8.75;;
48685;SDS011;34485;51.536;3.816;2023-11-18T05:27:41;24.02;;;9.23;;
48685;SDS011;34485;51.536;3.816;2023-11-18T05:30:10;13.27;;;7.93;;
48685;SDS011;34485;51.536;3.816;2023-11-18T05:32:36;17.60;;;9.07;;
48685;SDS011;34485;51.536;3.816;2023-11-18T05:35:03;19.65;;;9.60;;
48685;SDS011;34485;51.536;3.816;2023-11-18T05:37:30;20.50;;;8.13;;
48685;SDS011;34485;51.536;3.816;2023-11-18T05:40:00;20.63;;;10.80;;
48685;SDS011;34485;51.536;3.816;2023-11-18T05:42:31;17.37;;;8.13;;
48685;SDS011;34485;51.536;3.816;2023-11-18T05:44:57;20.92;;;7.15;;
48685;SDS011;34485;51.536;3.816;2023-11-18T05:47:27;18.80;;;8.65;;
48685;SDS011;34485;51.536;3.816;2023-11-18T05:49:53;16.13;;;8.68;;
48685;SDS011;34485;51.536;3.816;2023-11-18T05:52:20;24.63;;;8.25;;
48685;SDS011;34485;51.536;3.816;2023-11-18T05:54:47;15.63;;;7.20;;
48685;SDS011;34485;51.536;3.816;2023-11-18T05:57:14;13.98;;;7.22;;
48685;SDS011;34485;51.536;3.816;2023-11-18T05:59:41;17.50;;;8.65;;
48685;SDS011;34485;51.536;3.816;2023-11-18T06:02:07;17.98;;;7.60;;
48685;SDS011;34485;51.536;3.816;2023-11-18T06:04:34;19.25;;;7.72;;
48685;SDS011;34485;51.536;3.816;2023-11-18T06:07:00;22.67;;;7.23;;
48685;SDS011;34485;51.536;3.816;2023-11-18T06:09:27;16.58;;;8.32;;
48685;SDS011;34485;51.536;3.816;2023-11-18T06:11:53;19.40;;;7.47;;
48685;SDS011;34485;51.536;3.816;2023-11-18T06:14:20;15.57;;;7.30;;
48685;SDS011;34485;51.536;3.816;2023-11-18T06:16:49;15.95;;;7.55;;
48685;SDS011;34485;51.536;3.816;2023-11-18T06:19:15;17.20;;;6.03;;
48685;SDS011;34485;51.536;3.816;2023-11-18T06:21:41;14.30;;;7.25;;
48685;SDS011;34485;51.536;3.816;2023-11-18T06:24:07;19.15;;;7.82;;
48685;SDS011;34485;51.536;3.816;2023-11-18T06:26:36;15.45;;;6.45;;
48685;SDS011;34485;51.536;3.816;2023-11-18T06:29:02;16.23;;;7.20;;
48685;SDS011;34485;51.536;3.816;2023-11-18T06:31:29;15.93;;;6.60;;
48685;SDS011;34485;51.536;3.816;2023-11-18T06:33:55;16.08;;;7.68;;
48685;SDS011;34485;51.536;3.816;2023-11-18T06:36:22;22.00;;;7.55;;
48685;SDS011;34485;51.536;3.816;2023-11-18T06:38:49;20.00;;;7.45;;
48685;SDS011;34485;51.536;3.816;2023-11-18T06:41:15;18.67;;;7.70;;
48685;SDS011;34485;51.536;3.816;2023-11-18T06:43:45;9.83;;;5.93;;
48685;SDS011;34485;51.536;3.816;2023-11-18T06:46:21;18.17;;;6.53;;
48685;SDS011;34485;51.536;3.816;2023-11-18T06:48:51;13.65;;;6.65;;
48685;SDS011;34485;51.536;3.816;2023-11-18T06:51:23;16.42;;;5.80;;
48685;SDS011;34485;51.536;3.816;2023-11-18T06:53:52;13.63;;;6.30;;
48685;SDS011;34485;51.536;3.816;2023-11-18T06:56:22;17.13;;;6.03;;
48685;SDS011;34485;51.536;3.816;2023-11-18T06:58:48;20.17;;;6.35;;
48685;SDS011;34485;51.536;3.816;2023-11-18T07:01:14;18.88;;;6.50;;
48685;SDS011;34485;51.536;3.816;2023-11-18T07:03:43;24.63;;;6.47;;
48685;SDS011;34485;51.536;3.816;2023-11-18T07:06:10;13.75;;;6.40;;
48685;SDS011;34485;51.536;3.816;2023-11-18T07:08:39;11.80;;;6.13;;
48685;SDS011;34485;51.536;3.816;2023-11-18T07:11:05;14.18;;;6.57;;
48685;SDS011;34485;51.536;3.816;2023-11-18T07:13:32;18.02;;;6.43;;
48685;SDS011;34485;51.536;3.816;2023-11-18T07:16:01;14.40;;;6.55;;
48685;SDS011;34485;51.536;3.816;2023-11-18T07:18:28;17.08;;;6.80;;
48685;SDS011;34485;51.536;3.816;2023-11-18T07:21:00;10.97;;;6.93;;
48685;SDS011;34485;51.536;3.816;2023-11-18T07:23:27;13.80;;;6.40;;
48685;SDS011;34485;51.536;3.816;2023-11-18T07:25:53;22.45;;;6.18;;
48685;SDS011;34485;51.536;3.816;2023-11-18T07:28:19;20.52;;;6.30;;
48685;SDS011;34485;51.536;3.816;2023-11-18T07:30:45;9.73;;;5.70;;
48685;SDS011;34485;51.536;3.816;2023-11-18T07:33:13;18.67;;;5.87;;
48685;SDS011;34485;51.536;3.816;2023-11-18T07:35:39;16.08;;;6.13;;
48685;SDS011;34485;51.536;3.816;2023-11-18T07:38:05;18.50;;;6.63;;
48685;SDS011;34485;51.536;3.816;2023-11-18T07:40:32;19.13;;;6.05;;
48685;SDS011;34485;51.536;3.816;2023-11-18T07:42:58;16.42;;;6.63;;
48685;SDS011;34485;51.536;3.816;2023-11-18T07:45:26;13.23;;;5.87;;
48685;SDS011;34485;51.536;3.816;2023-11-18T07:47:54;19.75;;;6.65;;
48685;SDS011;34485;51.536;3.816;2023-11-18T07:50:20;20.95;;;6.55;;
48685;SDS011;34485;51.536;3.816;2023-11-18T07:52:49;11.13;;;5.75;;
48685;SDS011;34485;51.536;3.816;2023-11-18T07:55:16;20.65;;;6.53;;
48685;SDS011;34485;51.536;3.816;2023-11-18T07:57:43;14.60;;;6.00;;
48685;SDS011;34485;51.536;3.816;2023-11-18T08:00:09;14.43;;;5.82;;
48685;SDS011;34485;51.536;3.816;2023-11-18T08:02:38;12.10;;;6.20;;
48685;SDS011;34485;51.536;3.816;2023-11-18T08:05:05;20.23;;;6.32;;
48685;SDS011;34485;51.536;3.816;2023-11-18T08:07:38;15.93;;;5.97;;
48685;SDS011;34485;51.536;3.816;2023-11-18T08:10:05;15.27;;;5.03;;
48685;SDS011;34485;51.536;3.816;2023-11-18T08:12:32;16.60;;;5.32;;
48685;SDS011;34485;51.536;3.816;2023-11-18T08:14:59;9.27;;;5.03;;
48685;SDS011;34485;51.536;3.816;2023-11-18T08:17:25;10.32;;;4.28;;
48685;SDS011;34485;51.536;3.816;2023-11-18T08:19:52;17.88;;;5.55;;
48685;SDS011;34485;51.536;3.816;2023-11-18T08:22:18;16.60;;;5.93;;
48685;SDS011;34485;51.536;3.816;2023-11-18T08:24:48;16.58;;;5.70;;
48685;SDS011;34485;51.536;3.816;2023-11-18T08:27:14;17.98;;;6.65;;
48685;SDS011;34485;51.536;3.816;2023-11-18T08:29:40;11.48;;;5.70;;
48685;SDS011;34485;51.536;3.816;2023-11-18T08:32:06;15.60;;;5.95;;
48685;SDS011;34485;51.536;3.816;2023-11-18T08:34:36;15.87;;;6.20;;
48685;SDS011;34485;51.536;3.816;2023-11-18T08:37:05;13.65;;;5.30;;
48685;SDS011;34485;51.536;3.816;2023-11-18T08:39:31;16.42;;;5.75;;
48685;SDS011;34485;51.536;3.816;2023-11-18T08:41:58;13.27;;;5.78;;
48685;SDS011;34485;51.536;3.816;2023-11-18T08:44:24;22.55;;;6.90;;
48685;SDS011;34485;51.536;3.816;2023-11-18T08:46:51;17.53;;;5.97;;
48685;SDS011;34485;51.536;3.816;2023-11-18T08:49:20;17.67;;;4.80;;
48685;SDS011;34485;51.536;3.816;2023-11-18T08:51:47;9.35;;;4.88;;
48685;SDS011;34485;51.536;3.816;2023-11-18T08:54:14;14.90;;;4.78;;
48685;SDS011;34485;51.536;3.816;2023-11-18T08:56:54;9.85;;;5.22;;
48685;SDS011;34485;51.536;3.816;2023-11-18T08:59:20;20.47;;;5.03;;
48685;SDS011;34485;51.536;3.816;2023-11-18T09:01:55;12.10;;;4.15;;
48685;SDS011;34485;51.536;3.816;2023-11-18T09:04:24;16.25;;;5.40;;
48685;SDS011;34485;51.536;3.816;2023-11-18T09:06:50;13.32;;;4.90;;
48685;SDS011;34485;51.536;3.816;2023-11-18T09:09:19;13.80;;;5.10;;
48685;SDS011;34485;51.536;3.816;2023-11-18T09:11:54;23.13;;;5.30;;
48685;SDS011;34485;51.536;3.816;2023-11-18T09:14:21;16.90;;;5.72;;
48685;SDS011;34485;51.536;3.816;2023-11-18T09:16:49;10.90;;;4.68;;
48685;SDS011;34485;51.536;3.816;2023-11-18T09:19:16;16.55;;;5.45;;
48685;SDS011;34485;51.536;3.816;2023-11-18T09:21:46;12.95;;;5.57;;
48685;SDS011;34485;51.536;3.816;2023-11-18T09:24:12;16.83;;;5.60;;
48685;SDS011;34485;51.536;3.816;2023-11-18T09:26:39;16.40;;;5.60;;
48685;SDS011;34485;51.536;3.816;2023-11-18T09:29:05;14.68;;;6.35;;
48685;SDS011;34485;51.536;3.816;2023-11-18T09:31:37;20.40;;;5.82;;
48685;SDS011;34485;51.536;3.816;2023-11-18T09:34:04;16.23;;;7.10;;
48685;SDS011;34485;51.536;3.816;2023-11-18T09:36:31;15.30;;;5.77;;
48685;SDS011;34485;51.536;3.816;2023-11-18T09:38:58;17.75;;;4.78;;
48685;SDS011;34485;51.536;3.816;2023-11-18T09:41:25;22.52;;;7.15;;
48685;SDS011;34485;51.536;3.816;2023-11-18T09:43:52;14.23;;;5.97;;
48685;SDS011;34485;51.536;3.816;2023-11-18T09:46:29;12.02;;;6.03;;
48685;SDS011;34485;51.536;3.816;2023-11-18T09:51:53;17.33;;;5.68;;
48685;SDS011;34485;51.536;3.816;2023-11-18T09:54:27;13.55;;;5.90;;
48685;SDS011;34485;51.536;3.816;2023-11-18T09:57:23;17.15;;;6.63;;
48685;SDS011;34485;51.536;3.816;2023-11-18T10:00:06;7.65;;;4.38;;
48685;SDS011;34485;51.536;3.816;2023-11-18T10:02:45;10.30;;;6.93;;
48685;SDS011;34485;51.536;3.816;2023-11-18T10:05:11;13.00;;;6.72;;
48685;SDS011;34485;51.536;3.816;2023-11-18T10:07:41;13.40;;;6.55;;
48685;SDS011;34485;51.536;3.816;2023-11-18T10:10:08;10.75;;;5.82;;
48685;SDS011;34485;51.536;3.816;2023-11-18T10:12:46;14.75;;;7.15;;
48685;SDS011;34485;51.536;3.816;2023-11-18T10:15:23;10.90;;;6.40;;
48685;SDS011;34485;51.536;3.816;2023-11-18T10:17:50;16.38;;;7.55;;
48685;SDS011;34485;51.536;3.816;2023-11-18T10:20:47;17.88;;;7.63;;
48685;SDS011;34485;51.536;3.816;2023-11-18T10:23:16;14.38;;;8.10;;
48685;SDS011;34485;51.536;3.816;2023-11-18T10:25:52;11.95;;;6.93;;
48685;SDS011;34485;51.536;3.816;2023-11-18T10:28:25;10.40;;;6.07;;
48685;SDS011;34485;51.536;3.816;2023-11-18T10:30:58;12.35;;;7.25;;
48685;SDS011;34485;51.536;3.816;2023-11-18T10:33:28;11.43;;;7.75;;
48685;SDS011;34485;51.536;3.816;2023-11-18T10:36:00;17.40;;;7.03;;
48685;SDS011;34485;51.536;3.816;2023-11-18T10:38:32;7.10;;;6.28;;
48685;SDS011;34485;51.536;3.816;2023-11-18T10:41:01;10.60;;;6.43;;
48685;SDS011;34485;51.536;3.816;2023-11-18T10:43:28;8.55;;;6.03;;
48685;SDS011;34485;51.536;3.816;2023-11-18T10:46:03;11.55;;;6.00;;
48685;SDS011;34485;51.536;3.816;2023-11-18T10:48:32;13.82;;;8.30;;
48685;SDS011;34485;51.536;3.816;2023-11-18T10:50:58;13.73;;;8.07;;
48685;SDS011;34485;51.536;3.816;2023-11-18T10:53:24;13.47;;;6.83;;
48685;SDS011;34485;51.536;3.816;2023-11-18T10:55:53;6.47;;;4.80;;
48685;SDS011;34485;51.536;3.816;2023-11-18T10:58:20;14.93;;;6.82;;
48685;SDS011;34485;51.536;3.816;2023-11-18T11:00:47;13.63;;;6.95;;
48685;SDS011;34485;51.536;3.816;2023-11-18T11:03:14;9.77;;;5.95;;
48685;SDS011;34485;51.536;3.816;2023-11-18T11:05:40;12.97;;;8.10;;
48685;SDS011;34485;51.536;3.816;2023-11-18T11:08:08;10.45;;;5.95;;
48685;SDS011;34485;51.536;3.816;2023-11-18T11:10:38;13.95;;;7.82;;
48685;SDS011;34485;51.536;3.816;2023-11-18T11:13:07;13.15;;;7.78;;
48685;SDS011;34485;51.536;3.816;2023-11-18T11:15:40;12.63;;;8.18;;
48685;SDS011;34485;51.536;3.816;2023-11-18T11:18:08;6.77;;;5.63;;
48685;SDS011;34485;51.536;3.816;2023-11-18T11:20:57;13.75;;;7.97;;
48685;SDS011;34485;51.536;3.816;2023-11-18T11:23:35;13.45;;;8.20;;
48685;SDS011;34485;51.536;3.816;2023-11-18T11:31:35;10.33;;;6.57;;
48685;SDS011;34485;51.536;3.816;2023-11-18T11:34:04;10.48;;;6.50;;
48685;SDS011;34485;51.536;3.816;2023-11-18T11:36:42;13.95;;;7.57;;
48685;SDS011;34485;51.536;3.816;2023-11-18T11:39:08;19.13;;;9.35;;
48685;SDS011;34485;51.536;3.816;2023-11-18T11:41:46;16.05;;;9.20;;
48685;SDS011;34485;51.536;3.816;2023-11-18T11:44:15;21.73;;;13.57;;
48685;SDS011;34485;51.536;3.816;2023-11-18T11:46:44;17.42;;;11.02;;
48685;SDS011;34485;51.536;3.816;2023-11-18T11:49:11;13.35;;;8.05;;
48685;SDS011;34485;51.536;3.816;2023-11-18T11:51:47;13.18;;;7.07;;
48685;SDS011;34485;51.536;3.816;2023-11-18T11:56:46;9.33;;;6.93;;
48685;SDS011;34485;51.536;3.816;2023-11-18T11:59:34;7.68;;;5.60;;
48685;SDS011;34485;51.536;3.816;2023-11-18T12:02:06;7.25;;;5.72;;
48685;SDS011;34485;51.536;3.816;2023-11-18T12:04:43;7.80;;;4.90;;
48685;SDS011;34485;51.536;3.816;2023-11-18T12:07:21;8.38;;;6.20;;
48685;SDS011;34485;51.536;3.816;2023-11-18T12:09:48;7.77;;;5.90;;
48685;SDS011;34485;51.536;3.816;2023-11-18T12:12:21;9.95;;;6.80;;
48685;SDS011;34485;51.536;3.816;2023-11-18T12:14:51;7.20;;;5.95;;
48685;SDS011;34485;51.536;3.816;2023-11-18T12:23:12;15.20;;;7.20;;
48685;SDS011;34485;51.536;3.816;2023-11-18T12:25:43;10.43;;;5.68;;
48685;SDS011;34485;51.536;3.816;2023-11-18T12:28:19;9.38;;;6.38;;
48685;SDS011;34485;51.536;3.816;2023-11-18T12:31:00;8.50;;;5.65;;
48685;SDS011;34485;51.536;3.816;2023-11-18T12:41:38;7.30;;;6.03;;
48685;SDS011;34485;51.536;3.816;2023-11-18T12:44:49;9.98;;;5.70;;
48685;SDS011;34485;51.536;3.816;2023-11-18T12:47:00;6.82;;;5.40;;
48685;SDS011;34485;51.536;3.816;2023-11-18T12:49:37;3.80;;;3.50;;
48685;SDS011;34485;51.536;3.816;2023-11-18T12:52:06;9.70;;;5.28;;
48685;SDS011;34485;51.536;3.816;2023-11-18T12:54:33;6.13;;;5.00;;
48685;SDS011;34485;51.536;3.816;2023-11-18T12:57:02;6.63;;;4.65;;
48685;SDS011;34485;51.536;3.816;2023-11-18T12:59:31;8.88;;;4.93;;
48685;SDS011;34485;51.536;3.816;2023-11-18T13:01:58;6.70;;;4.53;;
48685;SDS011;34485;51.536;3.816;2023-11-18T13:04:23;7.47;;;4.90;;
48685;SDS011;34485;51.536;3.816;2023-11-18T13:06:50;9.13;;;5.47;;
48685;SDS011;34485;51.536;3.816;2023-11-18T13:09:16;5.60;;;5.03;;
48685;SDS011;34485;51.536;3.816;2023-11-18T13:11:55;5.35;;;4.25;;
48685;SDS011;34485;51.536;3.816;2023-11-18T13:14:25;5.18;;;4.68;;
48685;SDS011;34485;51.536;3.816;2023-11-18T13:16:55;4.80;;;3.75;;
48685;SDS011;34485;51.536;3.816;2023-11-18T13:19:28;5.15;;;4.65;;
48685;SDS011;34485;51.536;3.816;2023-11-18T13:21:58;3.43;;;3.13;;
48685;SDS011;34485;51.536;3.816;2023-11-18T13:24:27;4.13;;;3.83;;
48685;SDS011;34485;51.536;3.816;2023-11-18T13:26:53;3.72;;;3.42;;
48685;SDS011;34485;51.536;3.816;2023-11-18T13:29:21;4.80;;;3.45;;
48685;SDS011;34485;51.536;3.816;2023-11-18T13:31:49;4.68;;;3.38;;
48685;SDS011;34485;51.536;3.816;2023-11-18T13:34:16;5.00;;;3.37;;
48685;SDS011;34485;51.536;3.816;2023-11-18T13:36:46;2.78;;;2.65;;
48685;SDS011;34485;51.536;3.816;2023-11-18T13:39:19;2.90;;;2.70;;
48685;SDS011;34485;51.536;3.816;2023-11-18T13:41:49;3.03;;;2.60;;
48685;SDS011;34485;51.536;3.816;2023-11-18T13:47:09;2.90;;;2.70;;
48685;SDS011;34485;51.536;3.816;2023-11-18T13:49:39;4.00;;;3.67;;
48685;SDS011;34485;51.536;3.816;2023-11-18T13:52:06;3.90;;;3.13;;
48685;SDS011;34485;51.536;3.816;2023-11-18T13:54:35;3.67;;;3.38;;
48685;SDS011;34485;51.536;3.816;2023-11-18T13:57:05;4.63;;;4.22;;
48685;SDS011;34485;51.536;3.816;2023-11-18T13:59:31;4.40;;;4.00;;
48685;SDS011;34485;51.536;3.816;2023-11-18T14:01:58;4.57;;;4.18;;
48685;SDS011;34485;51.536;3.816;2023-11-18T14:04:27;6.60;;;4.78;;
48685;SDS011;34485;51.536;3.816;2023-11-18T14:06:56;4.28;;;3.88;;
48685;SDS011;34485;51.536;3.816;2023-11-18T14:09:23;5.95;;;5.43;;
48685;SDS011;34485;51.536;3.816;2023-11-18T14:11:54;11.17;;;5.63;;
48685;SDS011;34485;51.536;3.816;2023-11-18T14:14:21;6.20;;;4.45;;
48685;SDS011;34485;51.536;3.816;2023-11-18T14:16:48;5.60;;;5.03;;
48685;SDS011;34485;51.536;3.816;2023-11-18T14:19:14;6.32;;;5.70;;
48685;SDS011;34485;51.536;3.816;2023-11-18T14:21:40;5.03;;;4.67;;
48685;SDS011;34485;51.536;3.816;2023-11-18T14:24:10;4.43;;;4.13;;
48685;SDS011;34485;51.536;3.816;2023-11-18T14:26:37;4.20;;;3.90;;
48685;SDS011;34485;51.536;3.816;2023-11-18T14:29:04;4.07;;;3.85;;
48685;SDS011;34485;51.536;3.816;2023-11-18T14:31:31;4.93;;;4.53;;
48685;SDS011;34485;51.536;3.816;2023-11-18T14:33:57;5.10;;;4.60;;
48685;SDS011;34485;51.536;3.816;2023-11-18T14:36:25;4.57;;;4.28;;
48685;SDS011;34485;51.536;3.816;2023-11-18T14:38:51;4.60;;;4.30;;
48685;SDS011;34485;51.536;3.816;2023-11-18T14:41:17;6.60;;;6.00;;
48685;SDS011;34485;51.536;3.816;2023-11-18T14:43:44;8.32;;;7.50;;
48685;SDS011;34485;51.536;3.816;2023-11-18T14:46:11;9.07;;;7.55;;
48685;SDS011;34485;51.536;3.816;2023-11-18T14:48:38;12.52;;;10.63;;
48685;SDS011;34485;51.536;3.816;2023-11-18T14:51:04;8.53;;;7.50;;
48685;SDS011;34485;51.536;3.816;2023-11-18T14:53:32;7.25;;;6.25;;
48685;SDS011;34485;51.536;3.816;2023-11-18T14:55:59;9.40;;;8.02;;
48685;SDS011;34485;51.536;3.816;2023-11-18T14:58:25;9.93;;;7.50;;
48685;SDS011;34485;51.536;3.816;2023-11-18T15:00:51;8.38;;;7.57;;
48685;SDS011;34485;51.536;3.816;2023-11-18T15:03:17;14.07;;;12.00;;
48685;SDS011;34485;51.536;3.816;2023-11-18T15:05:42;10.93;;;9.80;;
48685;SDS011;34485;51.536;3.816;2023-11-18T15:08:11;15.33;;;11.03;;